createdAt,value
2018-07-09T00:04:50.295Z,0.80
2018-07-09T00:09:53.719Z,0.90
2018-07-09T00:14:57.138Z,0.80
2018-07-09T00:20:00.642Z,0.90
2018-07-09T00:25:04.052Z,0.80
2018-07-09T00:30:07.457Z,0.73
2018-07-09T00:35:10.925Z,0.80
2018-07-09T00:40:14.359Z,0.80
2018-07-09T00:45:17.948Z,0.67
2018-07-09T00:50:21.455Z,0.80
2018-07-09T00:55:24.933Z,0.80
2018-07-09T01:00:28.405Z,0.70
2018-07-09T01:05:31.823Z,0.70
2018-07-09T01:10:45.277Z,0.80
2018-07-09T01:15:48.655Z,0.50
2018-07-09T01:20:52.128Z,0.80
2018-07-09T01:25:55.676Z,0.73
2018-07-09T01:30:59.073Z,0.80
2018-07-09T01:36:02.491Z,0.70
2018-07-09T01:41:05.877Z,0.80
2018-07-09T01:46:09.284Z,0.90
2018-07-09T01:51:12.750Z,0.67
2018-07-09T01:56:16.163Z,0.80
2018-07-09T02:01:19.626Z,0.60
2018-07-09T02:06:23.044Z,0.80
2018-07-09T02:11:26.424Z,0.67
2018-07-09T02:16:29.852Z,0.83
2018-07-09T02:21:33.283Z,0.80
2018-07-09T02:26:36.672Z,0.80
2018-07-09T02:31:40.073Z,0.67
2018-07-09T02:36:43.456Z,0.70
2018-07-09T02:41:46.844Z,1.00
2018-07-09T02:46:50.228Z,0.93
2018-07-09T02:51:53.772Z,0.90
2018-07-09T02:56:57.157Z,0.77
2018-07-09T03:02:00.573Z,0.80
2018-07-09T03:07:03.959Z,0.63
2018-07-09T03:12:07.343Z,0.80
2018-07-09T03:17:11.480Z,0.73
2018-07-09T03:22:14.865Z,0.70
2018-07-09T03:27:18.272Z,0.70
2018-07-09T03:32:21.695Z,1.00
2018-07-09T03:37:25.100Z,0.80
2018-07-09T03:42:28.484Z,0.80
2018-07-09T03:47:31.881Z,0.87
2018-07-09T03:52:35.301Z,0.73
2018-07-09T03:57:38.728Z,0.93
2018-07-09T04:02:42.104Z,0.80
2018-07-09T04:07:45.499Z,1.00
2018-07-09T04:12:48.865Z,0.93
2018-07-09T04:17:52.267Z,1.03
2018-07-09T04:22:55.657Z,1.10
2018-07-09T04:27:59.022Z,1.00
2018-07-09T04:33:02.423Z,0.90
2018-07-09T04:38:05.844Z,0.90
2018-07-09T04:43:09.230Z,1.00
2018-07-09T04:48:12.599Z,1.00
2018-07-09T04:53:15.981Z,1.10
2018-07-09T04:58:19.342Z,0.93
2018-07-09T05:03:22.730Z,1.00
2018-07-09T05:08:25.827Z,0.90
2018-07-09T05:13:29.232Z,0.93
2018-07-09T05:18:32.625Z,1.20
2018-07-09T05:23:36.020Z,1.20
2018-07-09T05:28:39.412Z,1.20
2018-07-09T05:33:42.825Z,1.47
2018-07-09T05:38:45.937Z,1.30
2018-07-09T05:43:49.361Z,1.30
2018-07-09T05:48:53.264Z,1.20
2018-07-09T05:53:56.677Z,1.20
2018-07-09T05:59:00.089Z,1.03
2018-07-09T06:04:03.498Z,1.20
2018-07-09T06:09:07.796Z,1.10
2018-07-09T06:14:11.197Z,1.00
2018-07-09T06:19:14.648Z,1.23
2018-07-09T06:24:18.017Z,1.07
2018-07-09T06:29:21.408Z,1.30
2018-07-09T06:34:24.854Z,1.27
2018-07-09T06:39:28.276Z,1.30
2018-07-09T06:44:31.693Z,1.33
2018-07-09T06:49:35.108Z,1.20
2018-07-09T06:54:38.520Z,1.50
2018-07-09T06:59:41.944Z,1.37
2018-07-09T07:04:45.372Z,1.30
2018-07-09T07:09:49.684Z,1.40
2018-07-09T07:14:53.084Z,1.23
2018-07-09T07:19:56.528Z,1.80
2018-07-09T07:24:59.976Z,1.60
2018-07-09T07:30:03.421Z,1.40
2018-07-09T07:35:06.879Z,1.57
2018-07-09T07:40:10.409Z,1.40
2018-07-09T07:45:14.181Z,1.63
2018-07-09T07:50:17.628Z,1.40
2018-07-09T07:55:20.973Z,1.60
2018-07-09T08:00:24.401Z,1.40
2018-07-09T08:05:27.796Z,1.47
2018-07-09T08:10:31.205Z,1.60
2018-07-09T08:15:34.580Z,1.20
2018-07-09T08:20:38.076Z,1.50
2018-07-09T08:25:42.307Z,1.53
2018-07-09T08:30:45.517Z,1.87
2018-07-09T08:35:48.925Z,1.60
2018-07-09T08:40:52.047Z,1.50
2018-07-09T08:45:55.505Z,1.17
2018-07-09T08:50:58.954Z,1.40
2018-07-09T08:56:02.360Z,1.60
2018-07-09T09:01:05.856Z,1.50
2018-07-09T09:06:09.301Z,1.70
2018-07-09T09:11:12.797Z,1.57
2018-07-09T09:16:16.188Z,1.77
2018-07-09T09:21:19.620Z,1.83
2018-07-09T09:26:23.080Z,1.67
2018-07-09T09:31:26.559Z,1.73
2018-07-09T09:36:29.949Z,1.50
2018-07-09T09:41:33.352Z,1.40
2018-07-09T09:46:36.784Z,1.33
2018-07-09T09:51:40.224Z,1.20
2018-07-09T09:56:43.708Z,1.03
2018-07-09T10:01:47.112Z,1.47
2018-07-09T10:06:50.545Z,1.20
2018-07-09T10:11:53.985Z,1.25
2018-07-09T10:16:57.538Z,1.40
2018-07-09T10:22:00.932Z,1.10
2018-07-09T10:27:04.396Z,1.60
2018-07-09T10:32:07.877Z,1.15
2018-07-09T10:37:11.315Z,1.30
2018-07-09T10:42:14.721Z,1.50
2018-07-09T10:47:18.153Z,1.32
2018-07-09T10:52:21.629Z,1.32
2018-07-09T10:57:25.049Z,1.45
2018-07-09T11:02:28.497Z,1.17
2018-07-09T11:07:31.933Z,1.40
2018-07-09T11:12:35.348Z,1.20
2018-07-09T11:17:38.793Z,1.32
2018-07-09T11:22:42.268Z,1.32
2018-07-09T11:27:45.795Z,1.37
2018-07-09T11:32:49.273Z,1.20
2018-07-09T11:37:52.771Z,1.40
2018-07-09T11:42:56.149Z,1.30
2018-07-09T11:47:59.653Z,1.30
2018-07-09T11:53:03.079Z,1.30
2018-07-09T11:58:06.597Z,1.20
2018-07-09T12:03:10.237Z,1.20
2018-07-09T12:08:13.701Z,1.10
2018-07-09T12:13:17.251Z,1.20
2018-07-09T12:18:20.709Z,1.40
2018-07-09T12:23:24.405Z,1.52
2018-07-09T12:28:27.861Z,1.30
2018-07-09T12:33:31.311Z,1.40
2018-07-09T12:38:34.785Z,1.20
2018-07-09T12:43:38.249Z,1.40
2018-07-09T12:48:41.692Z,1.40
2018-07-09T12:53:45.193Z,1.30
2018-07-09T12:58:48.825Z,1.30
2018-07-09T13:03:52.458Z,1.35
2018-07-09T13:08:56.142Z,1.42
2018-07-09T13:13:59.697Z,1.20
2018-07-09T13:19:02.868Z,1.42
2018-07-09T13:24:06.372Z,1.52
2018-07-09T13:29:09.899Z,1.27
2018-07-09T13:34:13.509Z,1.30
2018-07-09T13:39:17.026Z,1.20
2018-07-09T13:44:20.609Z,1.05
2018-07-09T13:49:24.153Z,1.15
2018-07-09T13:54:27.792Z,1.17
2018-07-09T13:59:31.311Z,1.07
2018-07-09T14:04:34.872Z,1.10
2018-07-09T14:09:38.634Z,1.20
2018-07-09T14:14:42.396Z,1.30
2018-07-09T14:20:24.557Z,0.90
2018-07-09T14:25:28.213Z,1.10
2018-07-09T14:30:31.833Z,1.10
2018-07-09T14:35:35.682Z,1.27
2018-07-09T14:40:38.940Z,1.00
2018-07-09T14:45:42.575Z,0.90
2018-07-09T14:50:46.161Z,0.90
2018-07-09T14:55:49.657Z,0.80
2018-07-09T15:00:53.304Z,1.00
2018-07-09T15:05:57.669Z,1.35
2018-07-09T15:11:01.186Z,0.75
2018-07-09T15:16:04.937Z,0.88
2018-07-09T15:21:08.463Z,0.70
2018-07-09T15:26:12.200Z,0.85
2018-07-09T15:31:15.942Z,0.70
2018-07-09T15:36:19.532Z,0.75
2018-07-09T15:41:24.276Z,0.90
2018-07-09T15:46:27.824Z,0.68
2018-07-09T15:51:35.110Z,0.75
2018-07-09T15:56:38.725Z,0.90
2018-07-09T16:01:42.316Z,0.70
2018-07-09T16:06:45.991Z,0.70
2018-07-09T16:11:49.577Z,0.80
2018-07-09T16:16:53.125Z,0.87
2018-07-09T16:21:56.756Z,0.80
2018-07-09T16:27:00.305Z,0.97
2018-07-09T16:32:03.934Z,0.90
2018-07-09T16:37:07.823Z,0.80
2018-07-09T16:42:11.305Z,1.03
2018-07-09T16:47:14.774Z,1.10
2018-07-09T16:52:18.362Z,0.90
2018-07-09T16:57:21.861Z,0.85
2018-07-09T17:02:25.466Z,0.82
2018-07-09T17:07:29.053Z,1.00
2018-07-09T17:12:32.677Z,1.10
2018-07-09T17:17:36.391Z,1.00
2018-07-09T17:22:40.158Z,1.27
2018-07-09T17:27:43.664Z,0.90
2018-07-09T17:32:47.198Z,1.17
2018-07-09T17:37:50.887Z,1.00
2018-07-09T17:42:55.126Z,1.10
2018-07-09T17:47:58.625Z,1.20
2018-07-09T17:53:02.234Z,1.10
2018-07-09T17:58:05.885Z,1.07
2018-07-09T18:03:09.382Z,1.13
2018-07-09T18:08:12.980Z,1.00
2018-07-09T18:13:16.632Z,0.90
2018-07-09T18:18:20.231Z,0.87
2018-07-09T18:23:24.353Z,0.90
2018-07-09T18:28:27.970Z,1.30
2018-07-09T18:33:31.413Z,1.03
2018-07-09T18:38:35.051Z,0.90
2018-07-09T18:43:38.649Z,1.30
2018-07-09T18:48:42.168Z,1.00
2018-07-09T18:53:45.873Z,1.20
2018-07-09T18:58:49.404Z,1.00
2018-07-09T19:03:52.868Z,1.13
2018-07-09T19:08:56.382Z,1.00
2018-07-09T19:14:01.477Z,1.40
2018-07-09T19:19:16.761Z,1.07
2018-07-09T19:24:19.101Z,1.10
2018-07-09T19:29:21.729Z,1.00
2018-07-09T19:34:24.061Z,0.90
2018-07-09T19:39:26.388Z,1.00
2018-07-09T19:44:28.718Z,1.20
2018-07-09T19:49:31.029Z,0.80
2018-07-09T19:54:33.348Z,0.93
2018-07-09T19:59:35.746Z,1.20
2018-07-09T20:04:38.261Z,1.03
2018-07-09T20:13:59.805Z,1.10
2018-07-09T20:19:02.735Z,0.93
2018-07-09T20:24:06.053Z,0.80
2018-07-09T20:29:08.437Z,1.23
2018-07-09T20:34:10.849Z,0.90
2018-07-09T20:39:13.231Z,1.10
2018-07-09T20:44:15.627Z,1.20
2018-07-09T20:49:18.078Z,1.03
2018-07-09T20:54:20.433Z,0.90
2018-07-09T20:59:22.913Z,1.10
2018-07-09T21:04:26.835Z,1.07
2018-07-09T21:09:30.108Z,1.40
2018-07-09T21:14:32.442Z,1.30
2018-07-09T21:19:34.773Z,1.07
2018-07-09T21:24:37.206Z,1.30
2018-07-09T21:29:39.553Z,1.13
2018-07-09T21:34:41.895Z,1.00
2018-07-09T21:39:44.278Z,1.03
2018-07-09T21:44:46.596Z,1.10
2018-07-09T21:49:48.968Z,1.10
2018-07-09T21:54:51.302Z,1.57
2018-07-09T21:59:53.669Z,0.87
2018-07-09T22:04:56.109Z,0.93
2018-07-09T22:09:58.426Z,0.90
2018-07-09T22:15:00.737Z,1.20
2018-07-09T22:20:03.045Z,1.10
2018-07-09T22:25:05.419Z,1.10
2018-07-09T22:30:07.703Z,1.27
2018-07-09T22:35:11.222Z,1.17
2018-07-09T22:40:14.708Z,1.00
2018-07-09T22:45:18.166Z,1.00
2018-07-09T22:50:21.621Z,1.30
2018-07-09T22:55:36.392Z,1.13
2018-07-09T23:00:39.886Z,1.20
2018-07-09T23:05:43.606Z,1.13
2018-07-09T23:12:56.402Z,1.13
2018-07-09T23:18:11.536Z,1.10
2018-07-09T23:23:13.880Z,1.10
2018-07-09T23:28:16.213Z,1.23
2018-07-09T23:33:18.545Z,1.10
2018-07-09T23:38:20.884Z,1.20
2018-07-09T23:43:23.224Z,1.30
2018-07-09T23:48:25.543Z,1.50
2018-07-09T23:53:27.897Z,1.30
2018-07-09T23:59:48.478Z,1.10
